Hillsborough, New Jersey
Current Conditions -  °F | °C
As of 11:53 AM on Thursday 23 Oct 2014 (Local Time) from KSMQ Reporting Station
Light Rain Light Rain  
Wind Chill: 52°   Ceiling: 5500
Heat Index: 52°   Visibility: 8mi
Dew Point: 47°   Wind: 10mph
Humidity: 83%   Direction: 340°NNW
Pressure: 29.74"   Gusts: NA
Location:  40.5°N, 74.69°W
Report Text: KSMQ 231553Z AUTO 34009KT 8SM -RA SCT045 BKN055 OVC070 11/08 A2974 RMK AO2 RAB09 SLP071 P0002 T01110083
Loading
Personal Weather Stations






























Interactive Weather Map
Tropical Storm Tracking
New forecast layout! Learn more

10-Day Weather Forecast

Advertisements
Track Severe Weather on mobile